Terminal Aerodrome Forecast
Issued by NWS

Home | Current Version | Previous Version | Text Only | Print | Product List | Glossary On
Versions: 1 2 3 4 5 6 7 8 9 10 11 12 13 14 15 16 17 18
000
FTUS43 KABR 110522
TAFPIR
TAF
KPIR 110522Z 1106/1206 29015KT P6SM SCT250
     FM110900 31025G35KT P6SM SCT250
     FM111500 32025G35KT P6SM OVC025
     FM112300 33015G25KT P6SM OVC025
     FM120400 31008KT P6SM SCT035=

USA.gov is the U.S. government's official web portal to all federal, state and local government web resources and services.